Time;durP1;ratioP1;P1;durP2;ratioP2;P2;SDS_P1;SDS_P2;PMS_P1;PMS_P2;Temp;Humidity;BMP_temperature;BMP_pressure;BME280_temperature;BME280_humidity;BME280_pressure;Samples;Min_cycle;Max_cycle;Signal;HPM_P1;HPM_P2
2023/04/13 00:01:14;;;;;;;60.22;7.28;;;;;;;7.23;59.07;98991.22;4919744;28;20152;-59
2023/04/13 00:03:46;;;;;;;68.22;9.07;;;;;;;7.26;58.32;99006.72;4911256;28;20051;-58
2023/04/13 00:06:18;;;;;;;79.78;9.13;;;;;;;7.51;59.07;99007.00;4906754;28;21742;-59
2023/04/13 00:08:49;;;;;;;83.32;8.38;;;;;;;7.72;58.71;99006.50;4911285;28;20040;-60
2023/04/13 00:11:22;;;;;;;73.03;8.70;;;;;;;7.74;56.79;99009.91;4912209;28;20056;-60
2023/04/13 00:13:54;;;;;;;65.60;7.55;;;;;;;7.51;56.80;99017.41;4910705;28;20052;-60
2023/04/13 00:16:30;;;;;;;58.20;7.43;;;;;;;7.60;57.04;99017.19;4908782;28;20076;-60
2023/04/13 00:19:00;;;;;;;63.25;7.30;;;;;;;7.80;57.25;99000.25;4901132;28;20048;-59
2023/04/13 00:21:32;;;;;;;58.22;6.20;;;;;;;8.18;57.26;99010.50;4910951;28;20071;-59
2023/04/13 00:24:03;;;;;;;64.38;8.00;;;;;;;8.33;55.98;99016.19;4911000;28;20689;-60
2023/04/13 00:26:36;;;;;;;49.85;6.25;;;;;;;7.99;54.83;99011.91;4911874;28;20153;-60
2023/04/13 00:29:07;;;;;;;56.85;8.35;;;;;;;7.37;55.14;98973.56;4908340;28;20057;-58
2023/04/13 00:31:38;;;;;;;35.53;4.95;;;;;;;7.32;52.94;99023.06;4920972;28;20065;-59
2023/04/13 00:34:09;;;;;;;31.77;5.65;;;;;;;7.13;54.42;99029.53;4914442;28;20455;-59
2023/04/13 00:36:40;;;;;;;45.78;5.97;;;;;;;7.07;54.94;99020.16;4910634;28;20102;-59
2023/04/13 00:39:12;;;;;;;42.10;4.90;;;;;;;7.01;53.90;99033.25;4911191;28;20060;-59
2023/04/13 00:41:44;;;;;;;36.50;5.13;;;;;;;6.86;54.70;99029.28;4910880;28;20044;-59
2023/04/13 00:44:18;;;;;;;31.77;4.10;;;;;;;7.09;57.34;99025.31;4911131;28;20056;-59
2023/04/13 00:46:49;;;;;;;33.53;5.20;;;;;;;7.02;56.79;98987.38;4901145;28;20053;-59
2023/04/13 00:49:21;;;;;;;29.65;3.45;;;;;;;6.99;55.45;98958.84;4910898;28;20056;-60
2023/04/13 00:51:52;;;;;;;26.95;3.88;;;;;;;7.30;55.02;99030.03;4910462;28;20052;-59
2023/04/13 00:54:23;;;;;;;36.25;4.45;;;;;;;7.13;55.25;99013.97;4910436;28;21272;-59
2023/04/13 00:57:36;;;;;;;33.47;4.65;;;;;;;7.10;55.38;99016.63;4908868;28;20056;-59
2023/04/13 01:00:28;;;;;;;26.23;4.10;;;;;;;7.01;54.52;99029.81;4809609;28;20057;-59
2023/04/13 01:03:00;;;;;;;32.13;3.53;;;;;;;6.93;54.59;99034.31;4846214;28;20236;-60
2023/04/13 01:05:36;;;;;;;15.90;2.92;;;;;;;6.89;54.86;99034.41;4847114;28;20058;-60
2023/04/13 01:08:14;;;;;;;24.35;3.08;;;;;;;6.66;55.42;98989.88;4840596;28;20054;-60
2023/04/13 01:10:54;;;;;;;20.13;3.17;;;;;;;6.93;54.79;99024.78;4846121;28;20100;-58
2023/04/13 01:13:32;;;;;;;14.77;2.35;;;;;;;7.03;54.48;99025.44;4835675;28;20200;-58
2023/04/13 01:16:07;;;;;;;17.00;3.42;;;;;;;7.14;54.27;99023.47;4835476;28;20077;-57
2023/04/13 01:18:42;;;;;;;15.65;2.75;;;;;;;7.28;53.96;99012.75;4837474;28;20495;-56
2023/04/13 01:21:15;;;;;;;13.48;2.78;;;;;;;7.30;53.57;98992.78;4855659;28;20049;-58
2023/04/13 01:23:57;;;;;;;15.82;2.50;;;;;;;7.56;52.85;99025.94;4844877;28;20051;-58
2023/04/13 01:26:37;;;;;;;9.05;2.08;;;;;;;7.47;52.06;99021.00;4844017;28;20091;-58
2023/04/13 01:29:10;;;;;;;10.43;2.17;;;;;;;7.52;52.81;99013.94;4844701;28;20791;-58
2023/04/13 01:31:41;;;;;;;15.85;2.58;;;;;;;7.48;53.01;99027.88;4855464;28;20476;-58
2023/04/13 01:34:11;;;;;;;9.77;2.20;;;;;;;7.40;52.72;99029.81;4852820;28;20049;-58
2023/04/13 01:36:42;;;;;;;7.03;1.95;;;;;;;7.24;52.93;99027.56;4881737;28;20048;-57
2023/04/13 01:39:20;;;;;;;16.35;2.30;;;;;;;7.05;53.19;99039.25;4908886;28;20044;-57
2023/04/13 01:41:51;;;;;;;11.40;2.30;;;;;;;6.90;53.26;99041.28;4897530;28;20059;-58
2023/04/13 01:44:23;;;;;;;14.18;2.53;;;;;;;6.75;53.48;99036.41;4909708;28;20056;-58
2023/04/13 01:47:00;;;;;;;12.55;3.20;;;;;;;6.70;53.62;99035.66;4908657;28;20048;-58
2023/04/13 01:49:32;;;;;;;12.90;2.70;;;;;;;6.72;54.11;99026.09;4897765;28;20064;-58
2023/04/13 01:52:06;;;;;;;15.55;3.35;;;;;;;6.67;54.70;99033.13;4909335;28;20059;-58
2023/04/13 01:54:39;;;;;;;15.73;2.67;;;;;;;6.79;53.99;99037.19;4904432;28;20056;-58
2023/04/13 01:57:12;;;;;;;10.75;2.72;;;;;;;6.86;54.23;99039.66;4909068;28;20048;-59
2023/04/13 01:59:45;;;;;;;14.10;2.20;;;;;;;6.98;53.90;99053.25;4908455;28;20048;-59
2023/04/13 02:02:16;;;;;;;15.38;3.20;;;;;;;6.81;53.48;99046.66;4909536;28;20143;-59
2023/04/13 02:04:46;;;;;;;19.95;2.90;;;;;;;6.72;54.74;99059.84;4904085;28;20057;-58
2023/04/13 02:07:17;;;;;;;11.45;2.78;;;;;;;6.62;56.04;99055.72;4918550;28;20049;-59
2023/04/13 02:09:49;;;;;;;9.63;2.03;;;;;;;6.59;56.34;99060.94;4898994;28;20542;-59
2023/04/13 02:12:19;;;;;;;17.55;2.75;;;;;;;6.57;56.26;99041.97;4909158;28;20086;-59
2023/04/13 02:14:52;;;;;;;13.05;2.30;;;;;;;6.77;57.01;99055.41;4908613;28;21107;-58
2023/04/13 02:17:24;;;;;;;10.55;2.45;;;;;;;6.89;55.11;99057.75;4909435;28;20060;-59
2023/04/13 02:19:57;;;;;;;5.97;2.03;;;;;;;6.69;52.98;99020.97;4909854;28;20078;-59
2023/04/13 02:22:28;;;;;;;4.40;1.90;;;;;;;6.96;53.56;99055.03;4899420;28;20059;-58
2023/04/13 02:24:59;;;;;;;14.38;2.35;;;;;;;7.15;53.11;99061.53;4908793;28;20064;-59
2023/04/13 02:27:30;;;;;;;10.38;2.17;;;;;;;7.33;52.29;99055.94;4909172;28;20052;-58
2023/04/13 02:30:02;;;;;;;11.02;2.63;;;;;;;7.50;51.93;99063.34;4909116;28;20067;-59
2023/04/13 02:32:33;;;;;;;7.30;2.05;;;;;;;7.42;51.45;99049.69;4909803;28;20483;-59
2023/04/13 02:35:04;;;;;;;9.82;2.05;;;;;;;7.22;50.18;99057.94;4908574;28;20421;-59
2023/04/13 02:37:38;;;;;;;8.20;2.45;;;;;;;6.57;51.73;99003.06;4908273;28;20051;-58
2023/04/13 02:40:11;;;;;;;14.50;2.38;;;;;;;6.71;52.53;99060.72;4898423;28;20768;-59
2023/04/13 02:42:42;;;;;;;12.23;2.00;;;;;;;6.39;53.22;99036.25;4909435;28;20066;-57
2023/04/13 02:45:16;;;;;;;11.88;2.42;;;;;;;6.68;54.55;99081.53;4907850;28;20616;-59
2023/04/13 02:47:47;;;;;;;11.43;2.33;;;;;;;6.77;54.94;99070.16;4902973;28;20049;-58
2023/04/13 02:50:18;;;;;;;16.10;2.22;;;;;;;6.82;55.57;99078.69;4910078;28;20049;-58
2023/04/13 02:52:49;;;;;;;6.75;2.00;;;;;;;6.80;55.21;99073.53;4906440;28;20052;-59
2023/04/13 02:55:20;;;;;;;10.75;2.30;;;;;;;6.80;55.90;99073.53;4907654;28;20071;-58
2023/04/13 02:57:50;;;;;;;9.32;2.42;;;;;;;7.03;55.96;99074.78;4907966;28;20052;-58
2023/04/13 03:00:24;;;;;;;13.38;2.28;;;;;;;7.18;54.68;99066.66;4909121;28;20055;-58
2023/04/13 03:02:55;;;;;;;9.90;2.60;;;;;;;7.28;55.68;99072.50;4906344;28;20036;-58
2023/04/13 03:05:27;;;;;;;10.07;2.00;;;;;;;7.52;55.25;99078.91;4908626;28;20059;-59
2023/04/13 03:07:58;;;;;;;7.75;1.95;;;;;;;7.62;54.27;99090.81;4898739;28;20050;-59
2023/04/13 03:10:30;;;;;;;14.43;2.30;;;;;;;7.50;54.46;99088.50;4907157;28;20542;-58
2023/04/13 03:13:01;;;;;;;9.13;2.72;;;;;;;7.66;54.99;99088.97;4908419;28;20117;-59
2023/04/13 03:15:33;;;;;;;8.13;2.05;;;;;;;7.70;54.67;99081.09;4907850;28;20075;-58
2023/04/13 03:18:04;;;;;;;5.55;1.80;;;;;;;7.68;53.11;99064.66;4908273;28;20099;-58
2023/04/13 03:20:35;;;;;;;9.30;2.30;;;;;;;7.84;52.87;99104.16;4908217;28;20045;-59
2023/04/13 03:23:05;;;;;;;4.80;1.65;;;;;;;7.70;50.72;99107.06;4907890;28;20110;-59
2023/04/13 03:25:36;;;;;;;7.80;2.13;;;;;;;7.52;51.96;99091.91;4906467;28;20045;-57
2023/04/13 03:28:07;;;;;;;8.32;2.13;;;;;;;7.43;51.82;99113.75;4913896;28;20053;-59
2023/04/13 03:30:39;;;;;;;6.45;2.13;;;;;;;7.32;52.53;99115.75;4910163;28;21713;-59
2023/04/13 03:33:10;;;;;;;6.00;2.20;;;;;;;7.30;52.31;99113.16;4907301;28;20703;-59
2023/04/13 03:35:40;;;;;;;5.82;1.50;;;;;;;7.29;52.66;99121.00;4908736;28;20048;-60
2023/04/13 03:38:11;;;;;;;15.40;2.50;;;;;;;7.17;52.56;99121.28;4908332;28;20360;-59
2023/04/13 03:40:42;;;;;;;8.35;1.90;;;;;;;7.00;52.58;99124.22;4908349;28;20059;-59
2023/04/13 03:43:12;;;;;;;6.85;2.80;;;;;;;6.84;53.63;99134.91;4908347;28;20731;-59
2023/04/13 03:45:45;;;;;;;8.40;2.00;;;;;;;6.84;54.16;99134.91;4908058;28;20053;-59
2023/04/13 03:48:16;;;;;;;5.88;2.05;;;;;;;6.72;55.22;99140.31;4907725;28;20135;-58
2023/04/13 03:50:46;;;;;;;8.50;2.13;;;;;;;6.63;54.48;99138.72;4904051;28;20128;-59
2023/04/13 03:53:17;;;;;;;10.85;2.80;;;;;;;6.47;56.09;99140.75;4912931;28;20087;-59
2023/04/13 03:55:47;;;;;;;7.80;2.90;;;;;;;6.42;57.52;99152.97;4910741;28;20083;-59
2023/04/13 03:58:18;;;;;;;5.38;2.10;;;;;;;6.59;58.87;99144.88;4907826;28;20048;-58
2023/04/13 04:00:51;;;;;;;6.53;2.20;;;;;;;6.68;58.87;99133.47;4907970;28;20049;-59
2023/04/13 04:03:24;;;;;;;13.05;2.38;;;;;;;6.93;57.94;99140.78;4907713;28;20067;-59
2023/04/13 04:05:54;;;;;;;11.13;2.78;;;;;;;7.19;57.78;99145.44;4907821;28;20063;-59
2023/04/13 04:08:26;;;;;;;9.93;2.35;;;;;;;7.40;57.21;99136.38;4911058;28;20067;-59
2023/04/13 04:10:57;;;;;;;10.65;2.75;;;;;;;7.62;56.26;99128.97;4906388;28;20051;-59
2023/04/13 04:13:27;;;;;;;10.07;2.10;;;;;;;7.70;55.08;99151.28;4910882;28;20045;-59
2023/04/13 04:15:59;;;;;;;9.70;2.55;;;;;;;7.72;55.38;99146.06;4912570;28;20044;-59
2023/04/13 04:18:32;;;;;;;11.88;2.95;;;;;;;7.31;54.76;99088.03;4911214;28;20060;-59
2023/04/13 04:21:03;;;;;;;10.60;2.50;;;;;;;7.65;53.74;99150.53;4911229;28;20571;-59
2023/04/13 04:23:36;;;;;;;11.30;2.30;;;;;;;7.64;54.52;99143.63;4911592;28;20160;-59
2023/04/13 04:26:08;;;;;;;12.85;2.35;;;;;;;7.51;54.18;99152.56;4905638;28;20042;-59
2023/04/13 04:28:38;;;;;;;9.02;2.20;;;;;;;7.37;54.22;99139.03;4911274;28;20261;-58
2023/04/13 04:31:11;;;;;;;8.95;1.95;;;;;;;7.21;54.56;99141.94;4910389;28;20509;-59
2023/04/13 04:33:41;;;;;;;11.63;2.13;;;;;;;7.17;55.05;99137.72;4910908;28;20070;-59
2023/04/13 04:36:13;;;;;;;12.13;2.28;;;;;;;7.15;55.19;99144.66;4911578;28;20053;-58
2023/04/13 04:38:43;;;;;;;7.95;2.40;;;;;;;7.00;54.96;99144.97;4910497;28;20111;-58
2023/04/13 04:41:19;;;;;;;6.72;2.22;;;;;;;6.71;54.92;99154.16;4911670;28;20059;-58
2023/04/13 04:43:50;;;;;;;13.18;2.47;;;;;;;6.65;56.15;99154.28;4900917;28;20067;-59
2023/04/13 04:46:26;;;;;;;11.75;2.10;;;;;;;6.62;56.11;99149.16;4910504;28;20496;-59
2023/04/13 04:48:59;;;;;;;10.00;2.28;;;;;;;6.51;56.08;99161.47;4907543;28;20436;-58
2023/04/13 04:51:29;;;;;;;7.82;3.22;;;;;;;6.35;56.42;99155.69;4911077;28;20049;-58
2023/04/13 04:54:04;;;;;;;9.18;3.83;;;;;;;6.31;56.69;99159.22;4911111;28;20147;-58
2023/04/13 04:56:34;;;;;;;8.60;2.10;;;;;;;6.27;56.73;99168.78;4910490;28;20057;-59
2023/04/13 04:59:05;;;;;;;5.25;2.20;;;;;;;6.20;56.40;99167.19;4910901;28;20049;-58
2023/04/13 05:01:37;;;;;;;16.60;3.00;;;;;;;6.24;56.53;99166.22;4910490;28;20055;-59
2023/04/13 05:04:08;;;;;;;12.38;2.97;;;;;;;6.30;56.29;99162.69;4900147;28;20060;-59
2023/04/13 05:06:39;;;;;;;6.43;2.38;;;;;;;6.42;56.18;99165.94;4910255;28;20052;-58
2023/04/13 05:09:10;;;;;;;9.15;2.53;;;;;;;6.60;55.93;99161.31;4909692;28;20395;-58
2023/04/13 05:11:41;;;;;;;9.27;2.60;;;;;;;6.79;55.96;99156.63;4910621;28;20481;-58
2023/04/13 05:14:12;;;;;;;13.25;2.33;;;;;;;6.99;56.04;99158.84;4910205;28;20052;-58
2023/04/13 05:16:44;;;;;;;9.73;2.25;;;;;;;7.11;54.48;99158.59;4910023;28;20048;-59
2023/04/13 05:19:14;;;;;;;6.65;2.50;;;;;;;7.27;54.87;99164.34;4909535;28;20060;-58
2023/04/13 05:21:45;;;;;;;8.38;2.28;;;;;;;7.52;54.36;99164.69;4906554;28;20067;-59
2023/04/13 05:24:16;;;;;;;10.48;2.38;;;;;;;7.48;53.57;99163.03;4909632;28;20047;-59
2023/04/13 05:26:46;;;;;;;11.85;2.72;;;;;;;7.39;53.41;99163.22;4906847;28;20525;-58
2023/04/13 05:29:17;;;;;;;12.98;2.83;;;;;;;7.37;53.98;99165.03;4914884;28;20063;-58
2023/04/13 05:32:15;;;;;;;11.57;2.50;;;;;;;7.40;53.47;99159.75;4910294;28;20048;-57
2023/04/13 05:35:26;;;;;;;15.07;2.53;;;;;;;7.51;54.18;99168.16;4823122;28;20135;-58
2023/04/13 05:38:08;;;;;;;8.10;2.75;;;;;;;7.72;54.92;99183.31;4897032;28;20067;-59
2023/04/13 05:40:39;;;;;;;8.57;2.30;;;;;;;7.81;54.50;99177.03;4908761;28;20053;-59
2023/04/13 05:43:10;;;;;;;10.70;2.42;;;;;;;7.87;54.65;99176.06;4908972;28;20139;-59
2023/04/13 05:45:40;;;;;;;6.50;2.08;;;;;;;7.95;54.66;99194.94;4909687;28;20510;-58
2023/04/13 05:48:12;;;;;;;11.18;2.30;;;;;;;7.81;54.83;99189.19;4910191;28;20064;-58
2023/04/13 05:50:44;;;;;;;10.00;2.42;;;;;;;7.78;55.15;99198.75;4909361;28;20048;-59
2023/04/13 05:53:14;;;;;;;6.20;2.20;;;;;;;7.74;55.69;99196.28;4909960;28;20379;-60
2023/04/13 05:55:45;;;;;;;7.57;2.22;;;;;;;7.39;55.16;99202.22;4909807;28;20048;-58
2023/04/13 05:58:17;;;;;;;11.00;2.75;;;;;;;7.27;56.61;99206.78;4905341;28;20064;-59
2023/04/13 06:00:48;;;;;;;7.90;1.83;;;;;;;7.36;57.64;99205.72;4908890;28;20063;-58
2023/04/13 06:03:20;;;;;;;6.43;2.42;;;;;;;7.57;57.68;99204.44;4910129;28;20523;-59
2023/04/13 06:05:52;;;;;;;9.63;2.38;;;;;;;7.43;56.38;99206.47;4909257;28;20462;-59
2023/04/13 06:08:23;;;;;;;4.65;1.88;;;;;;;7.61;56.16;99200.88;4909865;28;20082;-58
2023/04/13 06:10:55;;;;;;;8.32;1.63;;;;;;;7.75;56.13;99209.25;4907062;28;20053;-58
2023/04/13 06:13:26;;;;;;;8.82;2.33;;;;;;;7.78;55.81;99203.97;4907400;28;20056;-58
2023/04/13 06:15:57;;;;;;;6.35;1.50;;;;;;;7.83;56.38;99221.22;4914206;28;20456;-60
2023/04/13 06:18:31;;;;;;;4.95;1.60;;;;;;;7.56;55.05;99223.50;4910217;28;20041;-59
2023/04/13 06:21:02;;;;;;;7.18;1.58;;;;;;;7.41;55.76;99218.63;4908872;28;20124;-59
2023/04/13 06:23:33;;;;;;;7.60;1.75;;;;;;;7.40;57.17;99227.31;4907462;28;20048;-60
2023/04/13 06:26:04;;;;;;;3.95;1.45;;;;;;;7.51;57.05;99230.56;4909401;28;20462;-59
2023/04/13 06:28:34;;;;;;;5.68;1.38;;;;;;;7.50;56.47;99229.69;4908658;28;20147;-59
2023/04/13 06:31:06;;;;;;;5.72;1.38;;;;;;;7.41;56.56;99229.03;4908453;28;20053;-59
2023/04/13 06:33:38;;;;;;;6.78;1.55;;;;;;;7.45;56.41;99241.94;4905837;28;20130;-59
2023/04/13 06:36:10;;;;;;;2.53;1.48;;;;;;;7.48;56.88;99241.00;4908408;28;20056;-59
2023/04/13 06:38:41;;;;;;;3.42;1.30;;;;;;;7.50;56.81;99239.25;4909220;28;20088;-60
2023/04/13 06:41:11;;;;;;;3.08;1.60;;;;;;;7.49;57.55;99242.75;4909252;28;20075;-59
2023/04/13 06:43:42;;;;;;;2.85;1.48;;;;;;;7.42;56.98;99235.97;4907879;28;20141;-59
2023/04/13 06:46:14;;;;;;;7.43;1.75;;;;;;;7.50;57.53;99244.44;4908747;28;20815;-59
2023/04/13 06:48:49;;;;;;;2.42;1.30;;;;;;;7.46;57.23;99237.59;4900859;28;20049;-57
2023/04/13 06:51:19;;;;;;;6.55;1.50;;;;;;;7.23;57.25;99243.25;4905411;28;20048;-58
2023/04/13 06:53:52;;;;;;;2.50;1.30;;;;;;;7.09;58.37;99248.72;4906919;28;20048;-59
2023/04/13 06:56:23;;;;;;;5.97;1.33;;;;;;;6.91;58.28;99250.75;4908372;28;20411;-58
2023/04/13 06:58:57;;;;;;;4.03;1.40;;;;;;;6.62;58.53;99245.22;4907811;28;20041;-58
2023/04/13 07:01:31;;;;;;;5.30;2.22;;;;;;;6.41;58.71;99249.84;4898174;28;20179;-58
2023/04/13 07:04:05;;;;;;;5.45;2.40;;;;;;;6.24;60.17;99241.47;4908792;28;20455;-58
2023/04/13 07:06:39;;;;;;;11.95;3.20;;;;;;;5.99;60.60;99220.22;4906483;28;20049;-58
2023/04/13 07:09:10;;;;;;;5.03;1.50;;;;;;;6.21;61.00;99262.25;4908872;28;20044;-58
2023/04/13 07:11:41;;;;;;;3.08;1.80;;;;;;;6.09;61.60;99263.31;4909140;28;20144;-58
2023/04/13 07:14:11;;;;;;;2.45;1.50;;;;;;;5.95;61.95;99260.91;4908417;28;20056;-58
2023/04/13 07:16:42;;;;;;;3.58;1.90;;;;;;;5.79;62.95;99264.53;4907959;28;20052;-57
2023/04/13 07:19:14;;;;;;;4.50;1.50;;;;;;;5.79;63.20;99259.34;4908699;28;20052;-58
2023/04/13 07:21:45;;;;;;;3.67;1.92;;;;;;;5.80;63.52;99266.25;4908307;28;20548;-58
2023/04/13 07:24:15;;;;;;;5.68;2.60;;;;;;;5.80;64.12;99271.44;4907921;28;20751;-58
2023/04/13 07:26:46;;;;;;;5.75;3.25;;;;;;;5.79;63.82;99272.31;4906773;28;20046;-58
2023/04/13 07:29:17;;;;;;;4.65;2.08;;;;;;;5.71;63.58;99271.56;4916564;28;20057;-57
2023/04/13 07:31:48;;;;;;;4.63;2.00;;;;;;;5.56;63.93;99273.44;4909054;28;20045;-58
2023/04/13 07:34:20;;;;;;;8.82;2.55;;;;;;;5.51;63.84;99275.25;4908654;28;20068;-57
2023/04/13 07:36:51;;;;;;;5.80;2.55;;;;;;;5.42;64.06;99290.91;4908724;28;20063;-58
2023/04/13 07:39:21;;;;;;;5.22;2.03;;;;;;;5.37;64.14;99287.50;4912673;28;20044;-58
2023/04/13 07:41:52;;;;;;;2.95;1.58;;;;;;;5.27;64.83;99280.72;4916324;28;20047;-58
2023/04/13 07:44:22;;;;;;;5.57;2.70;;;;;;;5.31;65.08;99284.97;4912194;28;20056;-58
2023/04/13 07:46:53;;;;;;;9.98;4.85;;;;;;;5.39;64.96;99301.28;4912171;28;20057;-58
2023/04/13 07:49:25;;;;;;;13.05;6.63;;;;;;;5.35;64.94;99299.63;4911308;28;20139;-58
2023/04/13 07:51:56;;;;;;;9.30;5.30;;;;;;;5.30;65.51;99301.41;4911198;28;20053;-57
2023/04/13 07:54:26;;;;;;;16.15;5.97;;;;;;;5.25;65.88;99293.66;4918536;28;20057;-58
2023/04/13 07:56:57;;;;;;;11.85;4.43;;;;;;;5.27;65.98;99296.25;4915363;28;20053;-57
2023/04/13 07:59:28;;;;;;;11.40;4.72;;;;;;;5.09;66.01;99303.34;4925772;28;20580;-58
2023/04/13 08:01:58;;;;;;;6.82;3.35;;;;;;;4.94;66.45;99303.44;4912044;28;20044;-57
2023/04/13 08:04:30;;;;;;;13.45;5.40;;;;;;;4.82;66.85;99312.19;4911914;28;20709;-57
2023/04/13 08:07:04;;;;;;;8.30;3.92;;;;;;;4.71;67.18;99301.91;4911567;28;20048;-57
2023/04/13 08:09:36;;;;;;;9.32;3.78;;;;;;;4.68;67.75;99311.44;4911603;28;20113;-57
2023/04/13 08:12:10;;;;;;;8.63;2.10;;;;;;;4.65;67.91;99322.69;4907955;28;20079;-57
2023/04/13 08:14:41;;;;;;;7.70;2.42;;;;;;;4.62;67.54;99321.81;4910868;28;20056;-58
2023/04/13 08:17:12;;;;;;;9.38;2.60;;;;;;;4.56;68.25;99317.56;4911785;28;20324;-57
2023/04/13 08:19:44;;;;;;;4.85;1.90;;;;;;;4.52;68.20;99305.53;4911276;28;20102;-58
2023/04/13 08:22:15;;;;;;;3.58;1.83;;;;;;;4.61;68.28;99320.97;4910965;28;20125;-58
2023/04/13 08:24:45;;;;;;;12.15;5.18;;;;;;;4.66;67.98;99318.34;4911125;28;20053;-58
2023/04/13 08:27:16;;;;;;;11.95;3.58;;;;;;;4.62;67.77;99309.78;4909391;28;20053;-57
2023/04/13 08:29:46;;;;;;;10.00;3.17;;;;;;;4.73;67.79;99310.53;4917770;28;20385;-58
2023/04/13 08:32:17;;;;;;;7.78;3.35;;;;;;;4.75;67.51;99313.97;4914087;28;20060;-58
2023/04/13 08:34:50;;;;;;;6.10;2.55;;;;;;;4.80;67.42;99320.84;4911862;28;20060;-57
2023/04/13 08:37:20;;;;;;;4.40;2.20;;;;;;;4.82;66.01;99317.38;4911034;28;20059;-58
2023/04/13 08:39:55;;;;;;;10.50;2.22;;;;;;;4.79;65.86;99326.88;4911281;28;20049;-57
2023/04/13 08:42:27;;;;;;;7.47;2.22;;;;;;;4.72;65.86;99334.72;4910694;28;20052;-57
2023/04/13 08:44:59;;;;;;;8.63;2.40;;;;;;;4.57;65.10;99333.94;4902486;28;20087;-57
2023/04/13 08:47:30;;;;;;;6.47;1.83;;;;;;;4.48;64.96;99340.03;4910669;28;20060;-58
2023/04/13 08:50:03;;;;;;;6.38;2.25;;;;;;;4.36;64.85;99363.41;4911005;28;20179;-57
2023/04/13 08:52:36;;;;;;;8.05;1.70;;;;;;;4.21;65.26;99359.16;4910266;28;20386;-61
2023/04/13 08:55:07;;;;;;;3.83;1.35;;;;;;;4.12;64.71;99357.50;4908541;28;20068;-57
2023/04/13 08:57:38;;;;;;;5.15;1.70;;;;;;;4.01;64.06;99357.53;4913018;28;20097;-57
2023/04/13 09:03:03;;;;;;;6.50;1.70;;;;;;;3.82;64.62;99369.69;4887561;28;20048;-58
2023/04/13 09:05:42;;;;;;;9.82;1.90;;;;;;;3.73;64.89;99358.50;4889193;28;20053;-59
2023/04/13 09:08:13;;;;;;;7.88;1.90;;;;;;;3.73;65.28;99374.88;4899137;28;20049;-59
2023/04/13 09:10:45;;;;;;;6.75;1.80;;;;;;;3.54;65.58;99368.03;4898448;28;20075;-59
2023/04/13 09:13:17;;;;;;;3.70;1.88;;;;;;;3.32;65.50;99355.19;4897910;28;20055;-58
2023/04/13 09:15:48;;;;;;;8.25;2.17;;;;;;;3.40;65.62;99392.16;4900629;28;20062;-57
2023/04/13 09:18:21;;;;;;;4.30;1.95;;;;;;;3.27;65.70;99380.16;4898155;28;20047;-59
2023/04/13 09:20:59;;;;;;;6.35;1.80;;;;;;;3.23;65.72;99396.50;4898604;28;20066;-58
2023/04/13 09:23:32;;;;;;;6.55;2.50;;;;;;;3.20;66.29;99401.66;4888327;28;20044;-59
2023/04/13 09:26:07;;;;;;;3.88;1.60;;;;;;;3.16;66.39;99407.66;4898035;28;20064;-58
2023/04/13 09:28:48;;;;;;;8.77;1.70;;;;;;;3.09;66.74;99417.13;4888097;28;20746;-58
2023/04/13 09:31:19;;;;;;;4.38;1.77;;;;;;;2.96;67.29;99415.41;4887668;28;20094;-59
2023/04/13 09:33:52;;;;;;;3.95;1.80;;;;;;;2.97;67.21;99428.31;4897572;28;20441;-59
2023/04/13 09:36:26;;;;;;;7.35;3.67;;;;;;;2.84;67.24;99421.41;4898414;28;20113;-59
2023/04/13 09:38:58;;;;;;;6.32;1.95;;;;;;;2.96;67.22;99447.22;4895399;28;20164;-58
2023/04/13 09:41:32;;;;;;;6.45;1.85;;;;;;;2.63;67.57;99411.91;4910087;28;20044;-58
2023/04/13 09:44:19;;;;;;;6.57;2.60;;;;;;;2.72;67.96;99447.19;4909448;28;20268;-58
2023/04/13 09:46:59;;;;;;;16.40;5.88;;;;;;;2.52;68.00;99429.06;4898816;28;20197;-59
2023/04/13 09:49:44;;;;;;;61.63;22.70;;;;;;;2.65;68.12;99460.94;4899799;28;20040;-59
2023/04/13 09:52:23;;;;;;;65.88;25.10;;;;;;;2.67;68.53;99465.25;4903160;28;20068;-58
2023/04/13 09:55:00;;;;;;;162.32;59.65;;;;;;;2.72;68.37;99479.03;4908993;28;20118;-57
2023/04/13 09:57:48;;;;;;;198.90;74.95;;;;;;;2.62;68.47;99477.28;4909538;28;20133;-59
2023/04/13 10:00:30;;;;;;;119.38;43.72;;;;;;;2.66;68.43;99485.88;4898917;28;20049;-59
2023/04/13 10:03:12;;;;;;;56.35;20.88;;;;;;;2.72;68.97;99503.94;4897924;28;20041;-58
2023/04/13 10:05:54;;;;;;;89.70;34.25;;;;;;;2.68;69.32;99507.38;4909324;28;20056;-59
2023/04/13 10:08:30;;;;;;;88.68;33.67;;;;;;;2.74;69.10;99522.84;4848697;28;20410;-58
2023/04/13 10:11:13;;;;;;;46.08;19.52;;;;;;;2.78;68.76;99520.31;4904275;28;20170;-58
2023/04/13 10:13:53;;;;;;;100.05;35.55;;;;;;;2.80;68.73;99512.56;4908426;28;20367;-58
2023/04/13 10:16:43;;;;;;;21.05;8.57;;;;;;;2.85;68.84;99530.66;4899125;28;20044;-59
2023/04/13 10:19:25;;;;;;;17.63;7.00;;;;;;;2.78;68.96;99519.44;4890212;28;20467;-58
2023/04/13 10:21:57;;;;;;;34.50;12.00;;;;;;;2.66;68.99;99496.19;4909362;28;20567;-58
2023/04/13 10:24:29;;;;;;;48.13;17.98;;;;;;;2.77;68.33;99538.34;4900067;28;20048;-57
2023/04/13 10:27:11;;;;;;;27.45;10.35;;;;;;;2.76;67.70;99546.94;4909525;28;20067;-58
2023/04/13 10:29:42;;;;;;;45.17;16.35;;;;;;;2.75;68.30;99547.81;4898975;28;20052;-58
2023/04/13 10:32:23;;;;;;;3.45;1.55;;;;;;;2.64;68.08;99546.91;4909668;28;20479;-58
2023/04/13 10:34:54;;;;;;;14.45;4.40;;;;;;;2.58;67.79;99551.19;4898808;28;20053;-58
2023/04/13 10:37:29;;;;;;;17.00;5.95;;;;;;;2.48;67.79;99546.84;4909282;28;20059;-58
2023/04/13 10:40:06;;;;;;;38.88;14.35;;;;;;;2.46;67.62;99561.44;4898909;28;20052;-58
2023/04/13 10:42:46;;;;;;;9.63;3.67;;;;;;;2.37;67.53;99553.63;4903244;28;20057;-58
2023/04/13 10:45:25;;;;;;;17.15;6.85;;;;;;;2.44;67.97;99560.56;4898874;28;20489;-59
2023/04/13 10:47:57;;;;;;;79.88;26.15;;;;;;;2.37;67.67;99551.06;4908907;28;20052;-58
2023/04/13 10:50:27;;;;;;;14.15;5.35;;;;;;;2.22;67.70;99545.81;4901844;28;20045;-58
2023/04/13 10:53:03;;;;;;;7.95;3.05;;;;;;;2.39;67.94;99567.41;4908987;28;20059;-58
2023/04/13 10:55:37;;;;;;;31.15;11.43;;;;;;;2.41;68.04;99576.03;4908852;28;20060;-58
2023/04/13 10:58:17;;;;;;;64.13;22.23;;;;;;;2.40;67.92;99576.88;4898267;28;20052;-58
2023/04/13 11:00:50;;;;;;;9.60;3.65;;;;;;;2.21;68.01;99577.63;4901609;28;20053;-57
2023/04/13 11:03:21;;;;;;;9.05;3.67;;;;;;;2.25;69.17;99589.69;4908831;28;20387;-58
2023/04/13 11:05:58;;;;;;;6.60;2.88;;;;;;;2.28;68.65;99594.84;4908638;28;20066;-58
2023/04/13 11:08:29;;;;;;;5.90;2.83;;;;;;;2.25;68.97;99600.00;4898426;28;20068;-56
2023/04/13 11:11:04;;;;;;;23.30;8.50;;;;;;;2.18;69.10;99598.22;4908625;28;20084;-57
2023/04/13 11:13:37;;;;;;;21.30;7.10;;;;;;;2.14;69.03;99603.34;4908336;28;20157;-57
2023/04/13 11:16:19;;;;;;;7.63;3.13;;;;;;;2.04;68.85;99606.69;4897643;28;20063;-56
2023/04/13 11:19:02;;;;;;;5.22;2.28;;;;;;;2.12;69.51;99609.34;4912878;28;20137;-57
2023/04/13 11:21:34;;;;;;;3.25;1.35;;;;;;;2.05;68.94;99613.59;4902431;28;20041;-57
2023/04/13 11:24:05;;;;;;;2.00;1.20;;;;;;;1.87;69.57;99593.72;4912814;28;20048;-57
2023/04/13 11:26:38;;;;;;;10.38;3.97;;;;;;;1.85;69.34;99610.88;4913023;28;20159;-57
2023/04/13 11:29:19;;;;;;;18.00;5.35;;;;;;;1.62;69.81;99591.75;4902361;28;20053;-57
2023/04/13 11:31:54;;;;;;;17.77;5.90;;;;;;;1.76;70.04;99628.81;4902475;28;20092;-57
2023/04/13 11:34:27;;;;;;;31.17;9.95;;;;;;;1.84;70.43;99634.03;4912773;28;20143;-57
2023/04/13 11:37:06;;;;;;;4.63;2.42;;;;;;;1.78;70.11;99623.69;4903566;28;20055;-58
2023/04/13 11:39:42;;;;;;;33.53;10.43;;;;;;;1.88;70.06;99638.38;4910575;28;20659;-58
2023/04/13 11:42:15;;;;;;;33.33;11.25;;;;;;;1.77;69.90;99611.63;4912009;28;20144;-57
2023/04/13 11:44:48;;;;;;;59.83;19.05;;;;;;;1.92;69.98;99637.53;4912321;28;20387;-57
2023/04/13 11:47:22;;;;;;;34.05;11.82;;;;;;;1.88;70.08;99638.38;4901775;28;20061;-58
2023/04/13 11:49:53;;;;;;;27.92;8.93;;;;;;;1.84;70.10;99644.34;4909728;28;20687;-59
2023/04/13 11:52:23;;;;;;;40.15;13.02;;;;;;;1.83;70.07;99647.78;4912489;28;20056;-57
2023/04/13 11:54:55;;;;;;;48.50;15.68;;;;;;;1.84;70.52;99649.47;4912913;28;20160;-57
2023/04/13 11:57:36;;;;;;;72.57;23.88;;;;;;;1.81;70.43;99644.31;4902102;28;20052;-58
2023/04/13 12:00:17;;;;;;;78.10;25.67;;;;;;;1.77;70.18;99638.25;4909644;28;20132;-57
2023/04/13 12:02:50;;;;;;;30.90;10.93;;;;;;;1.78;70.27;99652.03;4901942;28;20056;-58
2023/04/13 12:05:33;;;;;;;54.58;18.58;;;;;;;1.80;70.04;99650.28;4901702;28;20056;-57
2023/04/13 12:08:07;;;;;;;44.78;16.70;;;;;;;1.61;70.23;99621.81;4912027;28;20393;-58